sensor_id;sensor_type;location;lat;lon;timestamp;P1;durP1;ratioP1;P2;durP2;ratioP2
75220;SDS011;63802;53.232;6.570;2024-03-17T00:01:03;13.25;;;3.75;;
75220;SDS011;63802;53.232;6.570;2024-03-17T00:03:29;16.15;;;3.83;;
75220;SDS011;63802;53.232;6.570;2024-03-17T00:05:56;11.18;;;3.97;;
75220;SDS011;63802;53.232;6.570;2024-03-17T00:10:55;6.80;;;2.67;;
75220;SDS011;63802;53.232;6.570;2024-03-17T00:13:21;8.98;;;2.92;;
75220;SDS011;63802;53.232;6.570;2024-03-17T00:15:50;10.48;;;2.95;;
75220;SDS011;63802;53.232;6.570;2024-03-17T00:18:19;15.68;;;3.35;;
75220;SDS011;63802;53.232;6.570;2024-03-17T00:20:46;10.85;;;2.75;;
75220;SDS011;63802;53.232;6.570;2024-03-17T00:23:11;13.65;;;3.03;;
75220;SDS011;63802;53.232;6.570;2024-03-17T00:25:39;8.00;;;3.10;;
75220;SDS011;63802;53.232;6.570;2024-03-17T00:28:05;6.22;;;2.63;;
75220;SDS011;63802;53.232;6.570;2024-03-17T00:30:30;7.55;;;2.45;;
75220;SDS011;63802;53.232;6.570;2024-03-17T00:32:56;11.70;;;3.10;;
75220;SDS011;63802;53.232;6.570;2024-03-17T00:35:23;8.20;;;2.83;;
75220;SDS011;63802;53.232;6.570;2024-03-17T00:37:50;6.43;;;2.70;;
75220;SDS011;63802;53.232;6.570;2024-03-17T00:40:17;9.55;;;2.88;;
75220;SDS011;63802;53.232;6.570;2024-03-17T00:42:43;9.68;;;2.75;;
75220;SDS011;63802;53.232;6.570;2024-03-17T00:45:12;4.32;;;2.75;;
75220;SDS011;63802;53.232;6.570;2024-03-17T00:47:37;7.65;;;2.75;;
75220;SDS011;63802;53.232;6.570;2024-03-17T00:50:05;8.18;;;2.70;;
75220;SDS011;63802;53.232;6.570;2024-03-17T00:52:32;7.43;;;2.80;;
75220;SDS011;63802;53.232;6.570;2024-03-17T00:54:58;6.75;;;2.53;;
75220;SDS011;63802;53.232;6.570;2024-03-17T00:57:24;9.60;;;2.60;;
75220;SDS011;63802;53.232;6.570;2024-03-17T00:59:50;7.03;;;2.60;;
75220;SDS011;63802;53.232;6.570;2024-03-17T01:02:16;9.38;;;3.10;;
75220;SDS011;63802;53.232;6.570;2024-03-17T01:04:42;7.70;;;2.90;;
75220;SDS011;63802;53.232;6.570;2024-03-17T01:07:09;8.45;;;2.75;;
75220;SDS011;63802;53.232;6.570;2024-03-17T01:09:35;11.05;;;2.70;;
75220;SDS011;63802;53.232;6.570;2024-03-17T01:12:01;7.88;;;2.40;;
75220;SDS011;63802;53.232;6.570;2024-03-17T01:14:29;5.30;;;2.28;;
75220;SDS011;63802;53.232;6.570;2024-03-17T01:16:55;7.32;;;2.55;;
75220;SDS011;63802;53.232;6.570;2024-03-17T01:19:22;4.43;;;2.83;;
75220;SDS011;63802;53.232;6.570;2024-03-17T01:21:48;7.45;;;2.25;;
75220;SDS011;63802;53.232;6.570;2024-03-17T01:24:14;6.70;;;2.10;;
75220;SDS011;63802;53.232;6.570;2024-03-17T01:26:39;4.88;;;2.67;;
75220;SDS011;63802;53.232;6.570;2024-03-17T01:29:07;6.22;;;2.03;;
75220;SDS011;63802;53.232;6.570;2024-03-17T01:31:34;5.72;;;2.30;;
75220;SDS011;63802;53.232;6.570;2024-03-17T01:34:00;5.63;;;2.35;;
75220;SDS011;63802;53.232;6.570;2024-03-17T01:36:26;6.05;;;2.40;;
75220;SDS011;63802;53.232;6.570;2024-03-17T01:38:52;6.30;;;2.35;;
75220;SDS011;63802;53.232;6.570;2024-03-17T01:41:19;4.35;;;2.53;;
75220;SDS011;63802;53.232;6.570;2024-03-17T01:43:44;4.90;;;2.40;;
75220;SDS011;63802;53.232;6.570;2024-03-17T01:46:11;6.25;;;1.92;;
75220;SDS011;63802;53.232;6.570;2024-03-17T01:48:39;6.43;;;2.20;;
75220;SDS011;63802;53.232;6.570;2024-03-17T01:51:05;5.40;;;2.30;;
75220;SDS011;63802;53.232;6.570;2024-03-17T01:53:33;6.80;;;2.65;;
75220;SDS011;63802;53.232;6.570;2024-03-17T01:56:00;6.20;;;2.88;;
75220;SDS011;63802;53.232;6.570;2024-03-17T01:58:27;11.25;;;3.05;;
75220;SDS011;63802;53.232;6.570;2024-03-17T02:00:55;10.10;;;3.05;;
75220;SDS011;63802;53.232;6.570;2024-03-17T02:03:23;6.95;;;3.05;;
75220;SDS011;63802;53.232;6.570;2024-03-17T02:05:49;7.32;;;3.33;;
75220;SDS011;63802;53.232;6.570;2024-03-17T02:08:16;9.07;;;2.83;;
75220;SDS011;63802;53.232;6.570;2024-03-17T02:10:43;6.70;;;3.00;;
75220;SDS011;63802;53.232;6.570;2024-03-17T02:13:08;8.77;;;2.80;;
75220;SDS011;63802;53.232;6.570;2024-03-17T02:15:34;12.18;;;3.15;;
75220;SDS011;63802;53.232;6.570;2024-03-17T02:18:00;10.43;;;3.10;;
75220;SDS011;63802;53.232;6.570;2024-03-17T02:20:27;6.32;;;3.15;;
75220;SDS011;63802;53.232;6.570;2024-03-17T02:23:12;9.93;;;3.40;;
75220;SDS011;63802;53.232;6.570;2024-03-17T02:25:41;8.80;;;3.42;;
75220;SDS011;63802;53.232;6.570;2024-03-17T02:28:11;6.30;;;3.08;;
75220;SDS011;63802;53.232;6.570;2024-03-17T02:30:38;12.23;;;2.88;;
75220;SDS011;63802;53.232;6.570;2024-03-17T02:33:04;10.55;;;3.42;;
75220;SDS011;63802;53.232;6.570;2024-03-17T02:35:31;6.43;;;3.55;;
75220;SDS011;63802;53.232;6.570;2024-03-17T02:37:56;7.50;;;3.25;;
75220;SDS011;63802;53.232;6.570;2024-03-17T02:40:22;8.55;;;3.78;;
75220;SDS011;63802;53.232;6.570;2024-03-17T02:42:48;11.38;;;3.33;;
75220;SDS011;63802;53.232;6.570;2024-03-17T02:45:15;9.18;;;3.90;;
75220;SDS011;63802;53.232;6.570;2024-03-17T02:47:42;11.85;;;3.30;;
75220;SDS011;63802;53.232;6.570;2024-03-17T02:50:10;8.25;;;3.38;;
75220;SDS011;63802;53.232;6.570;2024-03-17T02:52:35;10.52;;;3.65;;
75220;SDS011;63802;53.232;6.570;2024-03-17T02:55:00;14.65;;;4.13;;
75220;SDS011;63802;53.232;6.570;2024-03-17T02:57:26;10.80;;;3.65;;
75220;SDS011;63802;53.232;6.570;2024-03-17T02:59:56;13.18;;;4.88;;
75220;SDS011;63802;53.232;6.570;2024-03-17T03:02:21;9.23;;;3.97;;
75220;SDS011;63802;53.232;6.570;2024-03-17T03:04:47;15.07;;;4.88;;
75220;SDS011;63802;53.232;6.570;2024-03-17T03:07:13;14.05;;;5.30;;
75220;SDS011;63802;53.232;6.570;2024-03-17T03:09:39;15.00;;;5.50;;
75220;SDS011;63802;53.232;6.570;2024-03-17T03:12:07;15.27;;;5.68;;
75220;SDS011;63802;53.232;6.570;2024-03-17T03:14:33;15.50;;;6.30;;
75220;SDS011;63802;53.232;6.570;2024-03-17T03:16:59;13.35;;;5.47;;
75220;SDS011;63802;53.232;6.570;2024-03-17T03:19:28;14.00;;;5.72;;
75220;SDS011;63802;53.232;6.570;2024-03-17T03:21:57;15.25;;;6.22;;
75220;SDS011;63802;53.232;6.570;2024-03-17T03:24:23;15.02;;;5.95;;
75220;SDS011;63802;53.232;6.570;2024-03-17T03:26:49;13.30;;;5.63;;
75220;SDS011;63802;53.232;6.570;2024-03-17T03:29:14;14.07;;;4.85;;
75220;SDS011;63802;53.232;6.570;2024-03-17T03:31:40;11.93;;;4.57;;
75220;SDS011;63802;53.232;6.570;2024-03-17T03:34:06;9.43;;;3.97;;
75220;SDS011;63802;53.232;6.570;2024-03-17T03:39:02;10.43;;;3.75;;
75220;SDS011;63802;53.232;6.570;2024-03-17T03:41:31;6.05;;;3.45;;
75220;SDS011;63802;53.232;6.570;2024-03-17T03:44:03;7.82;;;3.92;;
75220;SDS011;63802;53.232;6.570;2024-03-17T03:46:29;12.60;;;3.83;;
75220;SDS011;63802;53.232;6.570;2024-03-17T03:48:54;8.75;;;3.50;;
75220;SDS011;63802;53.232;6.570;2024-03-17T03:51:20;12.88;;;3.80;;
75220;SDS011;63802;53.232;6.570;2024-03-17T03:53:47;10.30;;;4.05;;
75220;SDS011;63802;53.232;6.570;2024-03-17T03:56:12;7.85;;;3.30;;
75220;SDS011;63802;53.232;6.570;2024-03-17T03:58:38;8.77;;;3.47;;
75220;SDS011;63802;53.232;6.570;2024-03-17T04:01:05;11.50;;;3.78;;
75220;SDS011;63802;53.232;6.570;2024-03-17T04:03:32;10.13;;;3.50;;
75220;SDS011;63802;53.232;6.570;2024-03-17T04:06:05;9.95;;;3.63;;
75220;SDS011;63802;53.232;6.570;2024-03-17T04:08:36;9.48;;;3.35;;
75220;SDS011;63802;53.232;6.570;2024-03-17T04:11:06;6.85;;;2.85;;
75220;SDS011;63802;53.232;6.570;2024-03-17T04:13:32;7.75;;;3.38;;
75220;SDS011;63802;53.232;6.570;2024-03-17T04:16:07;9.88;;;3.20;;
75220;SDS011;63802;53.232;6.570;2024-03-17T04:18:35;9.70;;;3.20;;
75220;SDS011;63802;53.232;6.570;2024-03-17T04:21:05;6.38;;;2.85;;
75220;SDS011;63802;53.232;6.570;2024-03-17T04:23:34;6.50;;;2.58;;
75220;SDS011;63802;53.232;6.570;2024-03-17T04:26:00;6.20;;;2.55;;
75220;SDS011;63802;53.232;6.570;2024-03-17T04:28:28;5.43;;;2.63;;
75220;SDS011;63802;53.232;6.570;2024-03-17T04:31:05;4.95;;;2.50;;
75220;SDS011;63802;53.232;6.570;2024-03-17T04:33:34;8.52;;;2.22;;
75220;SDS011;63802;53.232;6.570;2024-03-17T04:36:00;10.13;;;2.22;;
75220;SDS011;63802;53.232;6.570;2024-03-17T04:38:27;5.30;;;2.17;;
75220;SDS011;63802;53.232;6.570;2024-03-17T04:40:53;6.40;;;1.92;;
75220;SDS011;63802;53.232;6.570;2024-03-17T04:43:32;7.93;;;2.30;;
75220;SDS011;63802;53.232;6.570;2024-03-17T04:46:04;6.93;;;2.30;;
75220;SDS011;63802;53.232;6.570;2024-03-17T04:48:32;9.63;;;2.13;;
75220;SDS011;63802;53.232;6.570;2024-03-17T04:50:58;5.53;;;2.55;;
75220;SDS011;63802;53.232;6.570;2024-03-17T04:53:25;4.00;;;2.10;;
75220;SDS011;63802;53.232;6.570;2024-03-17T04:55:59;3.60;;;1.85;;
75220;SDS011;63802;53.232;6.570;2024-03-17T04:58:30;6.03;;;2.30;;
75220;SDS011;63802;53.232;6.570;2024-03-17T05:01:06;8.32;;;2.22;;
75220;SDS011;63802;53.232;6.570;2024-03-17T05:03:33;5.65;;;2.13;;
75220;SDS011;63802;53.232;6.570;2024-03-17T05:06:03;5.85;;;2.17;;
75220;SDS011;63802;53.232;6.570;2024-03-17T05:08:30;8.15;;;2.78;;
75220;SDS011;63802;53.232;6.570;2024-03-17T05:10:59;11.00;;;2.90;;
75220;SDS011;63802;53.232;6.570;2024-03-17T05:13:32;5.88;;;2.67;;
75220;SDS011;63802;53.232;6.570;2024-03-17T05:15:59;7.88;;;2.42;;
75220;SDS011;63802;53.232;6.570;2024-03-17T05:18:25;8.50;;;2.65;;
75220;SDS011;63802;53.232;6.570;2024-03-17T05:20:58;12.18;;;2.83;;
75220;SDS011;63802;53.232;6.570;2024-03-17T05:23:25;4.75;;;2.17;;
75220;SDS011;63802;53.232;6.570;2024-03-17T05:25:52;3.15;;;2.05;;
75220;SDS011;63802;53.232;6.570;2024-03-17T05:28:17;4.07;;;2.40;;
75220;SDS011;63802;53.232;6.570;2024-03-17T05:30:44;8.70;;;2.47;;
75220;SDS011;63802;53.232;6.570;2024-03-17T05:33:11;8.35;;;2.53;;
75220;SDS011;63802;53.232;6.570;2024-03-17T05:35:36;9.82;;;2.50;;
75220;SDS011;63802;53.232;6.570;2024-03-17T05:38:03;4.55;;;2.15;;
75220;SDS011;63802;53.232;6.570;2024-03-17T05:40:29;11.98;;;2.58;;
75220;SDS011;63802;53.232;6.570;2024-03-17T05:42:56;7.07;;;2.70;;
75220;SDS011;63802;53.232;6.570;2024-03-17T05:45:22;4.22;;;2.13;;
75220;SDS011;63802;53.232;6.570;2024-03-17T05:47:49;11.32;;;3.00;;
75220;SDS011;63802;53.232;6.570;2024-03-17T05:50:15;7.30;;;2.55;;
75220;SDS011;63802;53.232;6.570;2024-03-17T05:52:41;14.00;;;2.90;;
75220;SDS011;63802;53.232;6.570;2024-03-17T05:55:10;6.78;;;2.60;;
75220;SDS011;63802;53.232;6.570;2024-03-17T05:57:36;11.85;;;2.47;;
75220;SDS011;63802;53.232;6.570;2024-03-17T06:00:02;10.13;;;2.40;;
75220;SDS011;63802;53.232;6.570;2024-03-17T06:02:28;10.25;;;3.67;;
75220;SDS011;63802;53.232;6.570;2024-03-17T06:04:55;8.25;;;2.92;;
75220;SDS011;63802;53.232;6.570;2024-03-17T06:07:22;5.35;;;2.90;;
75220;SDS011;63802;53.232;6.570;2024-03-17T06:09:51;11.02;;;3.38;;
75220;SDS011;63802;53.232;6.570;2024-03-17T06:12:16;5.05;;;2.80;;
75220;SDS011;63802;53.232;6.570;2024-03-17T06:14:41;6.32;;;3.17;;
75220;SDS011;63802;53.232;6.570;2024-03-17T06:17:07;8.98;;;3.33;;
75220;SDS011;63802;53.232;6.570;2024-03-17T06:19:33;8.38;;;3.10;;
75220;SDS011;63802;53.232;6.570;2024-03-17T06:21:59;10.40;;;3.00;;
75220;SDS011;63802;53.232;6.570;2024-03-17T06:24:24;7.38;;;3.05;;
75220;SDS011;63802;53.232;6.570;2024-03-17T06:26:53;9.70;;;3.17;;
75220;SDS011;63802;53.232;6.570;2024-03-17T06:29:18;11.05;;;3.08;;
75220;SDS011;63802;53.232;6.570;2024-03-17T06:31:45;7.20;;;3.17;;
75220;SDS011;63802;53.232;6.570;2024-03-17T06:34:11;8.90;;;3.65;;
75220;SDS011;63802;53.232;6.570;2024-03-17T06:36:37;9.35;;;3.47;;
75220;SDS011;63802;53.232;6.570;2024-03-17T06:39:02;6.40;;;3.33;;
75220;SDS011;63802;53.232;6.570;2024-03-17T06:41:28;9.82;;;3.35;;
75220;SDS011;63802;53.232;6.570;2024-03-17T06:43:53;7.88;;;3.63;;
75220;SDS011;63802;53.232;6.570;2024-03-17T06:46:19;12.07;;;3.50;;
75220;SDS011;63802;53.232;6.570;2024-03-17T06:48:44;11.23;;;3.70;;
75220;SDS011;63802;53.232;6.570;2024-03-17T06:51:11;9.60;;;3.40;;
75220;SDS011;63802;53.232;6.570;2024-03-17T06:53:36;8.82;;;3.20;;
75220;SDS011;63802;53.232;6.570;2024-03-17T06:56:02;10.15;;;3.22;;
75220;SDS011;63802;53.232;6.570;2024-03-17T06:58:28;9.43;;;3.50;;
75220;SDS011;63802;53.232;6.570;2024-03-17T07:01:00;6.22;;;2.63;;
75220;SDS011;63802;53.232;6.570;2024-03-17T07:03:30;8.23;;;3.20;;
75220;SDS011;63802;53.232;6.570;2024-03-17T07:06:00;7.75;;;3.05;;
75220;SDS011;63802;53.232;6.570;2024-03-17T07:08:30;9.75;;;2.75;;
75220;SDS011;63802;53.232;6.570;2024-03-17T07:11:02;8.13;;;2.83;;
75220;SDS011;63802;53.232;6.570;2024-03-17T07:13:35;9.48;;;2.85;;
75220;SDS011;63802;53.232;6.570;2024-03-17T07:16:03;2.95;;;2.03;;
75220;SDS011;63802;53.232;6.570;2024-03-17T07:18:31;8.38;;;2.67;;
75220;SDS011;63802;53.232;6.570;2024-03-17T07:21:01;4.78;;;2.42;;
75220;SDS011;63802;53.232;6.570;2024-03-17T07:23:31;4.97;;;2.30;;
75220;SDS011;63802;53.232;6.570;2024-03-17T07:25:58;6.97;;;2.20;;
75220;SDS011;63802;53.232;6.570;2024-03-17T07:28:25;10.60;;;2.53;;
75220;SDS011;63802;53.232;6.570;2024-03-17T07:30:55;4.03;;;1.90;;
75220;SDS011;63802;53.232;6.570;2024-03-17T07:33:22;9.50;;;2.55;;
75220;SDS011;63802;53.232;6.570;2024-03-17T07:35:49;7.80;;;2.58;;
75220;SDS011;63802;53.232;6.570;2024-03-17T07:38:23;7.70;;;2.25;;
75220;SDS011;63802;53.232;6.570;2024-03-17T07:40:56;5.25;;;1.88;;
75220;SDS011;63802;53.232;6.570;2024-03-17T07:43:27;6.93;;;2.30;;
75220;SDS011;63802;53.232;6.570;2024-03-17T07:48:27;9.38;;;2.20;;
75220;SDS011;63802;53.232;6.570;2024-03-17T07:50:54;7.90;;;2.42;;
75220;SDS011;63802;53.232;6.570;2024-03-17T07:53:21;6.63;;;2.30;;
75220;SDS011;63802;53.232;6.570;2024-03-17T07:55:59;7.57;;;1.95;;
75220;SDS011;63802;53.232;6.570;2024-03-17T08:00:53;12.45;;;2.38;;
75220;SDS011;63802;53.232;6.570;2024-03-17T08:03:26;5.80;;;1.98;;
75220;SDS011;63802;53.232;6.570;2024-03-17T08:05:56;6.50;;;1.88;;
75220;SDS011;63802;53.232;6.570;2024-03-17T08:08:22;5.82;;;2.10;;
75220;SDS011;63802;53.232;6.570;2024-03-17T08:10:48;6.38;;;2.40;;
75220;SDS011;63802;53.232;6.570;2024-03-17T08:13:14;9.75;;;2.28;;
75220;SDS011;63802;53.232;6.570;2024-03-17T08:15:41;13.52;;;2.33;;
75220;SDS011;63802;53.232;6.570;2024-03-17T08:18:13;5.45;;;2.17;;
75220;SDS011;63802;53.232;6.570;2024-03-17T08:20:39;9.23;;;1.98;;
75220;SDS011;63802;53.232;6.570;2024-03-17T08:23:06;5.32;;;2.17;;
75220;SDS011;63802;53.232;6.570;2024-03-17T08:25:35;6.53;;;2.42;;
75220;SDS011;63802;53.232;6.570;2024-03-17T08:28:01;9.10;;;2.00;;
75220;SDS011;63802;53.232;6.570;2024-03-17T08:30:28;6.30;;;1.95;;
75220;SDS011;63802;53.232;6.570;2024-03-17T08:32:55;6.40;;;1.70;;
75220;SDS011;63802;53.232;6.570;2024-03-17T08:35:27;6.90;;;1.80;;
75220;SDS011;63802;53.232;6.570;2024-03-17T08:40:20;8.35;;;1.80;;
75220;SDS011;63802;53.232;6.570;2024-03-17T08:42:46;6.38;;;1.88;;
75220;SDS011;63802;53.232;6.570;2024-03-17T08:45:12;6.80;;;1.85;;
75220;SDS011;63802;53.232;6.570;2024-03-17T08:47:38;5.70;;;2.10;;
75220;SDS011;63802;53.232;6.570;2024-03-17T08:50:04;9.93;;;2.40;;
75220;SDS011;63802;53.232;6.570;2024-03-17T08:52:36;3.97;;;1.92;;
75220;SDS011;63802;53.232;6.570;2024-03-17T08:55:02;7.05;;;1.98;;
75220;SDS011;63802;53.232;6.570;2024-03-17T08:57:35;6.78;;;2.30;;
75220;SDS011;63802;53.232;6.570;2024-03-17T09:00:01;9.25;;;2.28;;
75220;SDS011;63802;53.232;6.570;2024-03-17T09:02:30;6.47;;;2.47;;
75220;SDS011;63802;53.232;6.570;2024-03-17T09:04:55;6.25;;;2.28;;
75220;SDS011;63802;53.232;6.570;2024-03-17T09:07:21;9.85;;;2.28;;
75220;SDS011;63802;53.232;6.570;2024-03-17T09:09:47;9.05;;;2.70;;
75220;SDS011;63802;53.232;6.570;2024-03-17T09:12:13;8.55;;;2.05;;
75220;SDS011;63802;53.232;6.570;2024-03-17T09:14:39;10.23;;;2.33;;
75220;SDS011;63802;53.232;6.570;2024-03-17T09:17:06;11.07;;;2.50;;
75220;SDS011;63802;53.232;6.570;2024-03-17T09:19:39;7.40;;;2.40;;
75220;SDS011;63802;53.232;6.570;2024-03-17T09:22:19;5.70;;;2.10;;
75220;SDS011;63802;53.232;6.570;2024-03-17T09:24:45;5.85;;;2.33;;
75220;SDS011;63802;53.232;6.570;2024-03-17T09:27:12;7.82;;;2.40;;
75220;SDS011;63802;53.232;6.570;2024-03-17T09:29:39;4.75;;;2.17;;
75220;SDS011;63802;53.232;6.570;2024-03-17T09:32:05;8.52;;;3.05;;
75220;SDS011;63802;53.232;6.570;2024-03-17T09:34:33;11.15;;;3.53;;
75220;SDS011;63802;53.232;6.570;2024-03-17T09:37:00;7.47;;;2.92;;
75220;SDS011;63802;53.232;6.570;2024-03-17T09:39:29;6.97;;;3.17;;
75220;SDS011;63802;53.232;6.570;2024-03-17T09:41:58;9.48;;;3.30;;
75220;SDS011;63802;53.232;6.570;2024-03-17T09:44:28;9.02;;;3.25;;
75220;SDS011;63802;53.232;6.570;2024-03-17T09:47:01;7.40;;;3.10;;
75220;SDS011;63802;53.232;6.570;2024-03-17T09:49:30;8.75;;;2.90;;
75220;SDS011;63802;53.232;6.570;2024-03-17T09:51:55;10.25;;;2.95;;
75220;SDS011;63802;53.232;6.570;2024-03-17T09:54:24;8.13;;;3.03;;
75220;SDS011;63802;53.232;6.570;2024-03-17T09:56:50;13.25;;;3.10;;
75220;SDS011;63802;53.232;6.570;2024-03-17T09:59:16;8.73;;;2.90;;
75220;SDS011;63802;53.232;6.570;2024-03-17T10:01:41;7.38;;;3.63;;
75220;SDS011;63802;53.232;6.570;2024-03-17T10:04:10;8.38;;;3.33;;
75220;SDS011;63802;53.232;6.570;2024-03-17T10:06:44;11.32;;;3.25;;
75220;SDS011;63802;53.232;6.570;2024-03-17T10:09:14;6.68;;;3.15;;
75220;SDS011;63802;53.232;6.570;2024-03-17T10:11:49;8.32;;;3.20;;
75220;SDS011;63802;53.232;6.570;2024-03-17T10:14:16;16.23;;;4.27;;
75220;SDS011;63802;53.232;6.570;2024-03-17T10:16:43;12.63;;;3.47;;
75220;SDS011;63802;53.232;6.570;2024-03-17T10:19:13;11.57;;;3.80;;
75220;SDS011;63802;53.232;6.570;2024-03-17T10:24:12;8.65;;;3.45;;
75220;SDS011;63802;53.232;6.570;2024-03-17T10:26:43;12.27;;;3.65;;
75220;SDS011;63802;53.232;6.570;2024-03-17T10:29:30;8.38;;;3.25;;
75220;SDS011;63802;53.232;6.570;2024-03-17T10:31:58;10.05;;;3.70;;
75220;SDS011;63802;53.232;6.570;2024-03-17T10:34:41;9.27;;;3.72;;
75220;SDS011;63802;53.232;6.570;2024-03-17T10:37:59;8.60;;;4.45;;
75220;SDS011;63802;53.232;6.570;2024-03-17T10:40:32;12.85;;;3.97;;
75220;SDS011;63802;53.232;6.570;2024-03-17T10:43:06;14.75;;;3.97;;
75220;SDS011;63802;53.232;6.570;2024-03-17T10:45:41;14.43;;;3.97;;
75220;SDS011;63802;53.232;6.570;2024-03-17T10:48:19;11.80;;;3.53;;
75220;SDS011;63802;53.232;6.570;2024-03-17T10:50:52;13.65;;;3.90;;
75220;SDS011;63802;53.232;6.570;2024-03-17T10:53:30;11.27;;;3.90;;
75220;SDS011;63802;53.232;6.570;2024-03-17T10:56:07;10.27;;;3.95;;
75220;SDS011;63802;53.232;6.570;2024-03-17T10:58:44;10.27;;;4.22;;
75220;SDS011;63802;53.232;6.570;2024-03-17T11:01:20;10.13;;;3.83;;
75220;SDS011;63802;53.232;6.570;2024-03-17T11:03:50;10.93;;;3.92;;
75220;SDS011;63802;53.232;6.570;2024-03-17T11:06:24;11.02;;;3.92;;
75220;SDS011;63802;53.232;6.570;2024-03-17T11:08:51;13.75;;;3.72;;
75220;SDS011;63802;53.232;6.570;2024-03-17T11:11:34;11.35;;;4.65;;
75220;SDS011;63802;53.232;6.570;2024-03-17T11:14:20;13.45;;;4.75;;
75220;SDS011;63802;53.232;6.570;2024-03-17T11:16:48;10.18;;;4.20;;
75220;SDS011;63802;53.232;6.570;2024-03-17T11:19:16;8.90;;;4.13;;
75220;SDS011;63802;53.232;6.570;2024-03-17T11:21:42;12.20;;;4.70;;
75220;SDS011;63802;53.232;6.570;2024-03-17T11:24:19;11.25;;;4.40;;
75220;SDS011;63802;53.232;6.570;2024-03-17T11:26:49;11.48;;;4.75;;
75220;SDS011;63802;53.232;6.570;2024-03-17T11:29:29;12.10;;;4.68;;
75220;SDS011;63802;53.232;6.570;2024-03-17T11:31:57;12.15;;;4.50;;
75220;SDS011;63802;53.232;6.570;2024-03-17T11:34:32;10.73;;;4.97;;
75220;SDS011;63802;53.232;6.570;2024-03-17T11:37:01;9.95;;;4.20;;
75220;SDS011;63802;53.232;6.570;2024-03-17T11:39:46;11.35;;;5.05;;
75220;SDS011;63802;53.232;6.570;2024-03-17T11:42:26;12.13;;;4.65;;
75220;SDS011;63802;53.232;6.570;2024-03-17T11:44:56;9.60;;;4.45;;
75220;SDS011;63802;53.232;6.570;2024-03-17T11:47:40;10.50;;;4.30;;
75220;SDS011;63802;53.232;6.570;2024-03-17T11:50:08;9.32;;;4.43;;
75220;SDS011;63802;53.232;6.570;2024-03-17T11:55:14;11.23;;;4.82;;
75220;SDS011;63802;53.232;6.570;2024-03-17T11:57:41;12.48;;;4.95;;
75220;SDS011;63802;53.232;6.570;2024-03-17T12:00:20;13.13;;;5.03;;
75220;SDS011;63802;53.232;6.570;2024-03-17T12:02:51;13.85;;;5.53;;
75220;SDS011;63802;53.232;6.570;2024-03-17T12:05:17;12.13;;;5.55;;
75220;SDS011;63802;53.232;6.570;2024-03-17T12:07:43;13.05;;;5.38;;
75220;SDS011;63802;53.232;6.570;2024-03-17T12:10:10;10.63;;;4.90;;
75220;SDS011;63802;53.232;6.570;2024-03-17T12:12:38;11.93;;;5.20;;
75220;SDS011;63802;53.232;6.570;2024-03-17T12:15:13;18.27;;;5.53;;
75220;SDS011;63802;53.232;6.570;2024-03-17T12:17:42;12.57;;;5.88;;
75220;SDS011;63802;53.232;6.570;2024-03-17T12:20:18;12.40;;;6.10;;
75220;SDS011;63802;53.232;6.570;2024-03-17T12:22:51;20.20;;;6.00;;
75220;SDS011;63802;53.232;6.570;2024-03-17T12:25:22;10.50;;;5.68;;
75220;SDS011;63802;53.232;6.570;2024-03-17T12:27:51;11.82;;;5.38;;
75220;SDS011;63802;53.232;6.570;2024-03-17T12:30:18;14.20;;;5.22;;
75220;SDS011;63802;53.232;6.570;2024-03-17T12:32:46;12.18;;;5.22;;
75220;SDS011;63802;53.232;6.570;2024-03-17T12:35:13;12.13;;;5.47;;
75220;SDS011;63802;53.232;6.570;2024-03-17T12:37:45;11.95;;;5.30;;
75220;SDS011;63802;53.232;6.570;2024-03-17T12:40:18;11.18;;;5.97;;
75220;SDS011;63802;53.232;6.570;2024-03-17T12:42:49;12.88;;;5.93;;
75220;SDS011;63802;53.232;6.570;2024-03-17T12:45:18;11.85;;;6.07;;
75220;SDS011;63802;53.232;6.570;2024-03-17T12:47:48;11.77;;;5.10;;
75220;SDS011;63802;53.232;6.570;2024-03-17T12:50:16;13.07;;;5.88;;
75220;SDS011;63802;53.232;6.570;2024-03-17T12:52:46;14.25;;;6.43;;
75220;SDS011;63802;53.232;6.570;2024-03-17T12:55:18;11.55;;;5.50;;
75220;SDS011;63802;53.232;6.570;2024-03-17T13:00:56;14.23;;;6.43;;
75220;SDS011;63802;53.232;6.570;2024-03-17T13:03:28;13.20;;;6.05;;
75220;SDS011;63802;53.232;6.570;2024-03-17T13:05:54;14.77;;;7.85;;
75220;SDS011;63802;53.232;6.570;2024-03-17T13:08:20;15.77;;;6.88;;
75220;SDS011;63802;53.232;6.570;2024-03-17T13:10:46;13.88;;;7.00;;
75220;SDS011;63802;53.232;6.570;2024-03-17T13:13:12;13.23;;;7.05;;
75220;SDS011;63802;53.232;6.570;2024-03-17T13:15:41;15.05;;;6.63;;
75220;SDS011;63802;53.232;6.570;2024-03-17T13:18:07;12.55;;;6.88;;
75220;SDS011;63802;53.232;6.570;2024-03-17T13:20:33;14.43;;;6.65;;
75220;SDS011;63802;53.232;6.570;2024-03-17T13:23:00;16.85;;;6.78;;
75220;SDS011;63802;53.232;6.570;2024-03-17T13:25:27;12.88;;;6.20;;
75220;SDS011;63802;53.232;6.570;2024-03-17T13:28:01;12.57;;;6.00;;
75220;SDS011;63802;53.232;6.570;2024-03-17T13:30:28;11.63;;;5.95;;
75220;SDS011;63802;53.232;6.570;2024-03-17T13:32:54;14.55;;;6.85;;
75220;SDS011;63802;53.232;6.570;2024-03-17T13:35:25;14.30;;;6.90;;
75220;SDS011;63802;53.232;6.570;2024-03-17T13:37:54;16.25;;;7.28;;
75220;SDS011;63802;53.232;6.570;2024-03-17T13:40:21;14.52;;;6.32;;
75220;SDS011;63802;53.232;6.570;2024-03-17T13:42:52;14.52;;;6.80;;
75220;SDS011;63802;53.232;6.570;2024-03-17T13:45:21;11.60;;;6.00;;
75220;SDS011;63802;53.232;6.570;2024-03-17T13:47:58;14.63;;;7.32;;
75220;SDS011;63802;53.232;6.570;2024-03-17T13:50:25;13.32;;;6.40;;
75220;SDS011;63802;53.232;6.570;2024-03-17T13:52:51;15.15;;;6.47;;
75220;SDS011;63802;53.232;6.570;2024-03-17T13:55:21;13.50;;;6.57;;
75220;SDS011;63802;53.232;6.570;2024-03-17T13:57:50;14.77;;;6.55;;
75220;SDS011;63802;53.232;6.570;2024-03-17T14:00:19;13.27;;;6.45;;
75220;SDS011;63802;53.232;6.570;2024-03-17T14:02:46;12.20;;;6.15;;
75220;SDS011;63802;53.232;6.570;2024-03-17T14:05:13;13.63;;;6.47;;
75220;SDS011;63802;53.232;6.570;2024-03-17T14:07:41;18.77;;;6.90;;
75220;SDS011;63802;53.232;6.570;2024-03-17T14:10:10;14.93;;;6.28;;
75220;SDS011;63802;53.232;6.570;2024-03-17T14:12:38;12.88;;;6.53;;
75220;SDS011;63802;53.232;6.570;2024-03-17T14:15:05;11.55;;;5.85;;
75220;SDS011;63802;53.232;6.570;2024-03-17T14:17:32;11.60;;;5.78;;
75220;SDS011;63802;53.232;6.570;2024-03-17T14:19:58;13.73;;;6.60;;
75220;SDS011;63802;53.232;6.570;2024-03-17T14:22:23;11.60;;;5.72;;
75220;SDS011;63802;53.232;6.570;2024-03-17T14:24:49;13.30;;;6.15;;
75220;SDS011;63802;53.232;6.570;2024-03-17T14:27:15;11.63;;;5.97;;
75220;SDS011;63802;53.232;6.570;2024-03-17T14:29:43;12.20;;;6.45;;
75220;SDS011;63802;53.232;6.570;2024-03-17T14:32:08;12.75;;;6.32;;
75220;SDS011;63802;53.232;6.570;2024-03-17T14:34:34;12.75;;;5.72;;
75220;SDS011;63802;53.232;6.570;2024-03-17T14:37:03;11.18;;;5.47;;
75220;SDS011;63802;53.232;6.570;2024-03-17T14:39:29;11.18;;;5.30;;
75220;SDS011;63802;53.232;6.570;2024-03-17T14:41:56;11.02;;;5.82;;
75220;SDS011;63802;53.232;6.570;2024-03-17T14:44:22;11.77;;;5.68;;
75220;SDS011;63802;53.232;6.570;2024-03-17T14:46:49;13.65;;;5.93;;
75220;SDS011;63802;53.232;6.570;2024-03-17T14:49:19;11.50;;;5.97;;
75220;SDS011;63802;53.232;6.570;2024-03-17T14:51:45;13.60;;;5.50;;
75220;SDS011;63802;53.232;6.570;2024-03-17T14:54:11;11.80;;;5.75;;
75220;SDS011;63802;53.232;6.570;2024-03-17T14:56:38;10.43;;;5.45;;
75220;SDS011;63802;53.232;6.570;2024-03-17T14:59:05;11.63;;;6.10;;
75220;SDS011;63802;53.232;6.570;2024-03-17T15:01:31;12.32;;;6.10;;
75220;SDS011;63802;53.232;6.570;2024-03-17T15:03:56;11.93;;;5.35;;
75220;SDS011;63802;53.232;6.570;2024-03-17T15:06:23;16.13;;;5.97;;
75220;SDS011;63802;53.232;6.570;2024-03-17T15:08:49;14.50;;;5.80;;